sensor_id;sensor_type;location;lat;lon;timestamp;pressure;altitude;pressure_sealevel;temperature;humidity
13407;BME280;6774;48.208;10.766;2022-12-18T00:01:29;96559.28;;;-3.14;79.43
13407;BME280;6774;48.208;10.766;2022-12-18T00:03:59;96556.63;;;-3.12;79.96
13407;BME280;6774;48.208;10.766;2022-12-18T00:06:29;96564.38;;;-3.12;79.48
13407;BME280;6774;48.208;10.766;2022-12-18T00:08:57;96561.88;;;-3.14;79.93
13407;BME280;6774;48.208;10.766;2022-12-18T00:11:27;96557.41;;;-3.10;79.68
13407;BME280;6774;48.208;10.766;2022-12-18T00:13:59;96565.06;;;-3.09;79.40
13407;BME280;6774;48.208;10.766;2022-12-18T00:16:28;96561.69;;;-3.11;79.27
13407;BME280;6774;48.208;10.766;2022-12-18T00:18:57;96567.72;;;-3.10;79.56
13407;BME280;6774;48.208;10.766;2022-12-18T00:21:25;96563.41;;;-3.10;79.47
13407;BME280;6774;48.208;10.766;2022-12-18T00:23:54;96572.88;;;-3.10;79.68
13407;BME280;6774;48.208;10.766;2022-12-18T00:26:25;96575.59;;;-3.13;79.65
13407;BME280;6774;48.208;10.766;2022-12-18T00:29:00;96572.88;;;-3.10;79.59
13407;BME280;6774;48.208;10.766;2022-12-18T00:31:31;96578.72;;;-3.07;79.83
13407;BME280;6774;48.208;10.766;2022-12-18T00:34:00;96579.72;;;-3.09;79.74
13407;BME280;6774;48.208;10.766;2022-12-18T00:36:29;96585.78;;;-3.10;79.93
13407;BME280;6774;48.208;10.766;2022-12-18T00:38:59;96594.13;;;-3.23;79.61
13407;BME280;6774;48.208;10.766;2022-12-18T00:41:28;96591.56;;;-3.23;79.96
13407;BME280;6774;48.208;10.766;2022-12-18T00:44:16;96587.84;;;-3.17;80.03
13407;BME280;6774;48.208;10.766;2022-12-18T00:46:46;96587.75;;;-3.16;80.16
13407;BME280;6774;48.208;10.766;2022-12-18T00:49:15;96583.44;;;-3.15;79.45
13407;BME280;6774;48.208;10.766;2022-12-18T00:51:44;96582.16;;;-3.24;79.72
13407;BME280;6774;48.208;10.766;2022-12-18T00:54:12;96586.19;;;-3.18;79.65
13407;BME280;6774;48.208;10.766;2022-12-18T00:56:39;96589.59;;;-3.18;79.78
13407;BME280;6774;48.208;10.766;2022-12-18T00:59:17;96595.66;;;-3.19;79.82
13407;BME280;6774;48.208;10.766;2022-12-18T01:01:46;96587.00;;;-3.18;79.39
13407;BME280;6774;48.208;10.766;2022-12-18T01:04:15;96588.69;;;-3.17;79.66
13407;BME280;6774;48.208;10.766;2022-12-18T01:06:44;96580.66;;;-3.28;79.76
13407;BME280;6774;48.208;10.766;2022-12-18T01:09:13;96594.50;;;-3.30;79.92
13407;BME280;6774;48.208;10.766;2022-12-18T01:11:41;96598.53;;;-3.25;80.37
13407;BME280;6774;48.208;10.766;2022-12-18T01:14:10;96602.78;;;-3.24;79.74
13407;BME280;6774;48.208;10.766;2022-12-18T01:16:39;96613.56;;;-3.16;79.81
13407;BME280;6774;48.208;10.766;2022-12-18T01:19:07;96607.50;;;-3.15;80.19
13407;BME280;6774;48.208;10.766;2022-12-18T01:21:35;96608.25;;;-3.12;79.58
13407;BME280;6774;48.208;10.766;2022-12-18T01:24:04;96608.13;;;-3.09;80.12
13407;BME280;6774;48.208;10.766;2022-12-18T01:26:32;96614.19;;;-3.10;80.05
13407;BME280;6774;48.208;10.766;2022-12-18T01:29:00;96620.66;;;-3.19;80.16
13407;BME280;6774;48.208;10.766;2022-12-18T01:31:30;96622.31;;;-3.18;80.60
13407;BME280;6774;48.208;10.766;2022-12-18T01:34:03;96615.69;;;-3.24;80.80
13407;BME280;6774;48.208;10.766;2022-12-18T01:36:36;96624.66;;;-3.13;80.70
13407;BME280;6774;48.208;10.766;2022-12-18T01:39:06;96618.66;;;-3.14;80.16
13407;BME280;6774;48.208;10.766;2022-12-18T01:41:34;96619.81;;;-3.20;80.38
13407;BME280;6774;48.208;10.766;2022-12-18T01:47:24;96626.47;;;-2.98;80.22
13407;BME280;6774;48.208;10.766;2022-12-18T01:49:55;96624.81;;;-2.99;80.51
13407;BME280;6774;48.208;10.766;2022-12-18T01:52:25;96622.16;;;-2.98;80.10
13407;BME280;6774;48.208;10.766;2022-12-18T01:54:54;96615.69;;;-2.89;80.52
13407;BME280;6774;48.208;10.766;2022-12-18T01:57:23;96616.69;;;-2.92;80.57
13407;BME280;6774;48.208;10.766;2022-12-18T01:59:54;96618.25;;;-2.89;80.11
13407;BME280;6774;48.208;10.766;2022-12-18T02:02:26;96612.94;;;-2.86;80.62
13407;BME280;6774;48.208;10.766;2022-12-18T02:04:56;96611.25;;;-2.87;80.24
13407;BME280;6774;48.208;10.766;2022-12-18T02:07:29;96613.53;;;-2.81;80.67
13407;BME280;6774;48.208;10.766;2022-12-18T02:10:03;96610.97;;;-2.81;80.34
13407;BME280;6774;48.208;10.766;2022-12-18T02:12:41;96607.28;;;-2.77;80.50
13407;BME280;6774;48.208;10.766;2022-12-18T02:15:15;96605.44;;;-2.75;80.22
13407;BME280;6774;48.208;10.766;2022-12-18T02:17:51;96603.56;;;-2.71;80.23
13407;BME280;6774;48.208;10.766;2022-12-18T02:20:25;96610.31;;;-2.69;80.50
13407;BME280;6774;48.208;10.766;2022-12-18T02:23:04;96611.53;;;-2.76;80.48
13407;BME280;6774;48.208;10.766;2022-12-18T02:28:17;96615.16;;;-2.63;80.18
13407;BME280;6774;48.208;10.766;2022-12-18T02:30:50;96609.25;;;-2.65;80.53
13407;BME280;6774;48.208;10.766;2022-12-18T02:33:21;96613.34;;;-2.61;79.84
13407;BME280;6774;48.208;10.766;2022-12-18T02:35:51;96624.59;;;-2.62;80.66
13407;BME280;6774;48.208;10.766;2022-12-18T02:38:22;96622.13;;;-2.80;79.99
13407;BME280;6774;48.208;10.766;2022-12-18T02:40:53;96621.66;;;-2.71;80.31
13407;BME280;6774;48.208;10.766;2022-12-18T02:43:23;96620.66;;;-2.69;80.05
13407;BME280;6774;48.208;10.766;2022-12-18T02:45:54;96618.81;;;-2.67;80.21
13407;BME280;6774;48.208;10.766;2022-12-18T02:48:26;96615.56;;;-2.70;80.09
13407;BME280;6774;48.208;10.766;2022-12-18T02:51:02;96610.16;;;-2.66;79.61
13407;BME280;6774;48.208;10.766;2022-12-18T02:53:36;96600.63;;;-2.65;79.95
13407;BME280;6774;48.208;10.766;2022-12-18T02:56:11;96601.50;;;-2.65;79.82
13407;BME280;6774;48.208;10.766;2022-12-18T02:58:47;96598.00;;;-2.64;79.97
13407;BME280;6774;48.208;10.766;2022-12-18T03:01:36;96598.31;;;-2.70;79.87
13407;BME280;6774;48.208;10.766;2022-12-18T03:04:12;96603.66;;;-2.73;80.13
13407;BME280;6774;48.208;10.766;2022-12-18T03:06:46;96605.16;;;-2.69;80.17
13407;BME280;6774;48.208;10.766;2022-12-18T03:09:20;96599.97;;;-2.69;79.85
13407;BME280;6774;48.208;10.766;2022-12-18T03:11:54;96596.34;;;-2.65;79.77
13407;BME280;6774;48.208;10.766;2022-12-18T03:14:43;96596.16;;;-2.62;79.93
13407;BME280;6774;48.208;10.766;2022-12-18T03:17:17;96601.16;;;-2.59;80.00
13407;BME280;6774;48.208;10.766;2022-12-18T03:19:49;96611.66;;;-2.62;79.94
13407;BME280;6774;48.208;10.766;2022-12-18T03:22:20;96617.41;;;-2.57;79.53
13407;BME280;6774;48.208;10.766;2022-12-18T03:24:52;96626.03;;;-2.56;79.89
13407;BME280;6774;48.208;10.766;2022-12-18T03:27:23;96621.69;;;-2.55;79.66
13407;BME280;6774;48.208;10.766;2022-12-18T03:30:01;96628.53;;;-2.54;79.82
13407;BME280;6774;48.208;10.766;2022-12-18T03:32:39;96615.75;;;-2.58;79.78
13407;BME280;6774;48.208;10.766;2022-12-18T03:35:10;96620.16;;;-2.60;79.64
13407;BME280;6774;48.208;10.766;2022-12-18T03:37:41;96618.34;;;-2.58;79.37
13407;BME280;6774;48.208;10.766;2022-12-18T03:40:10;96626.16;;;-2.59;79.87
13407;BME280;6774;48.208;10.766;2022-12-18T03:42:44;96625.25;;;-2.58;79.89
13407;BME280;6774;48.208;10.766;2022-12-18T03:45:19;96622.00;;;-2.62;79.77
13407;BME280;6774;48.208;10.766;2022-12-18T03:47:57;96621.25;;;-2.64;79.95
13407;BME280;6774;48.208;10.766;2022-12-18T03:50:36;96628.00;;;-2.61;79.85
13407;BME280;6774;48.208;10.766;2022-12-18T03:53:14;96639.16;;;-2.61;80.01
13407;BME280;6774;48.208;10.766;2022-12-18T03:55:47;96627.00;;;-2.59;79.47
13407;BME280;6774;48.208;10.766;2022-12-18T03:58:20;96635.84;;;-2.63;79.94
13407;BME280;6774;48.208;10.766;2022-12-18T04:01:12;96629.59;;;-2.59;79.89
13407;BME280;6774;48.208;10.766;2022-12-18T04:03:43;96624.59;;;-2.62;79.92
13407;BME280;6774;48.208;10.766;2022-12-18T04:06:14;96624.41;;;-2.59;79.90
13407;BME280;6774;48.208;10.766;2022-12-18T04:08:43;96629.94;;;-2.65;79.44
13407;BME280;6774;48.208;10.766;2022-12-18T04:11:15;96635.16;;;-2.66;79.83
13407;BME280;6774;48.208;10.766;2022-12-18T04:13:46;96625.97;;;-2.72;80.01
13407;BME280;6774;48.208;10.766;2022-12-18T04:16:22;96628.78;;;-2.76;80.23
13407;BME280;6774;48.208;10.766;2022-12-18T04:18:54;96639.13;;;-2.76;80.43
13407;BME280;6774;48.208;10.766;2022-12-18T04:21:23;96643.44;;;-2.77;80.32
13407;BME280;6774;48.208;10.766;2022-12-18T04:23:52;96636.78;;;-2.81;80.38
13407;BME280;6774;48.208;10.766;2022-12-18T04:26:21;96636.53;;;-2.76;80.45
13407;BME280;6774;48.208;10.766;2022-12-18T04:29:05;96629.47;;;-2.73;80.28
13407;BME280;6774;48.208;10.766;2022-12-18T04:31:35;96621.72;;;-2.73;80.17
13407;BME280;6774;48.208;10.766;2022-12-18T04:34:03;96641.47;;;-2.72;80.05
13407;BME280;6774;48.208;10.766;2022-12-18T04:36:38;96647.41;;;-2.70;80.38
13407;BME280;6774;48.208;10.766;2022-12-18T04:39:06;96646.66;;;-2.72;80.47
13407;BME280;6774;48.208;10.766;2022-12-18T04:41:34;96646.31;;;-2.66;80.33
13407;BME280;6774;48.208;10.766;2022-12-18T04:44:03;96637.97;;;-2.71;80.00
13407;BME280;6774;48.208;10.766;2022-12-18T04:46:31;96636.16;;;-2.69;79.97
13407;BME280;6774;48.208;10.766;2022-12-18T04:49:00;96629.31;;;-2.70;80.14
13407;BME280;6774;48.208;10.766;2022-12-18T04:51:29;96639.03;;;-2.75;80.28
13407;BME280;6774;48.208;10.766;2022-12-18T04:53:57;96648.47;;;-2.74;79.63
13407;BME280;6774;48.208;10.766;2022-12-18T04:56:25;96646.19;;;-2.80;80.06
13407;BME280;6774;48.208;10.766;2022-12-18T04:58:53;96648.78;;;-2.80;80.28
13407;BME280;6774;48.208;10.766;2022-12-18T05:01:21;96650.44;;;-2.79;80.17
13407;BME280;6774;48.208;10.766;2022-12-18T05:03:53;96667.63;;;-2.78;80.01
13407;BME280;6774;48.208;10.766;2022-12-18T05:06:22;96672.69;;;-2.76;79.93
13407;BME280;6774;48.208;10.766;2022-12-18T05:08:50;96666.63;;;-2.75;79.98
13407;BME280;6774;48.208;10.766;2022-12-18T05:11:18;96672.63;;;-2.75;80.51
13407;BME280;6774;48.208;10.766;2022-12-18T05:13:46;96676.13;;;-2.76;79.92
13407;BME280;6774;48.208;10.766;2022-12-18T05:16:14;96678.56;;;-2.73;80.02
13407;BME280;6774;48.208;10.766;2022-12-18T05:18:43;96677.88;;;-2.76;80.11
13407;BME280;6774;48.208;10.766;2022-12-18T05:21:11;96682.19;;;-2.77;79.40
13407;BME280;6774;48.208;10.766;2022-12-18T05:23:41;96679.78;;;-2.80;79.47
13407;BME280;6774;48.208;10.766;2022-12-18T05:26:14;96683.28;;;-2.81;79.80
13407;BME280;6774;48.208;10.766;2022-12-18T05:28:43;96693.44;;;-2.95;80.25
13407;BME280;6774;48.208;10.766;2022-12-18T05:31:12;96693.31;;;-2.92;80.26
13407;BME280;6774;48.208;10.766;2022-12-18T05:33:40;96693.31;;;-2.92;80.00
13407;BME280;6774;48.208;10.766;2022-12-18T05:36:09;96693.38;;;-2.94;79.89
13407;BME280;6774;48.208;10.766;2022-12-18T05:38:38;96687.53;;;-2.97;79.63
13407;BME280;6774;48.208;10.766;2022-12-18T05:41:08;96680.69;;;-2.98;79.04
13407;BME280;6774;48.208;10.766;2022-12-18T05:43:37;96673.16;;;-3.03;79.19
13407;BME280;6774;48.208;10.766;2022-12-18T05:46:07;96672.19;;;-3.00;79.71
13407;BME280;6774;48.208;10.766;2022-12-18T05:48:35;96679.03;;;-2.99;79.42
13407;BME280;6774;48.208;10.766;2022-12-18T05:51:05;96673.72;;;-2.96;79.54
13407;BME280;6774;48.208;10.766;2022-12-18T05:53:34;96675.47;;;-2.97;79.42
13407;BME280;6774;48.208;10.766;2022-12-18T05:56:12;96682.53;;;-3.00;79.57
13407;BME280;6774;48.208;10.766;2022-12-18T05:58:41;96694.66;;;-3.02;79.55
13407;BME280;6774;48.208;10.766;2022-12-18T06:01:10;96689.19;;;-2.96;79.41
13407;BME280;6774;48.208;10.766;2022-12-18T06:03:39;96703.84;;;-2.97;79.50
13407;BME280;6774;48.208;10.766;2022-12-18T06:06:15;96699.53;;;-2.96;79.45
13407;BME280;6774;48.208;10.766;2022-12-18T06:08:43;96701.34;;;-2.98;79.15
13407;BME280;6774;48.208;10.766;2022-12-18T06:11:17;96699.69;;;-2.99;79.56
13407;BME280;6774;48.208;10.766;2022-12-18T06:13:45;96697.84;;;-2.97;79.41
13407;BME280;6774;48.208;10.766;2022-12-18T06:16:13;96695.28;;;-2.97;79.24
13407;BME280;6774;48.208;10.766;2022-12-18T06:18:41;96713.34;;;-2.97;79.48
13407;BME280;6774;48.208;10.766;2022-12-18T06:21:10;96713.50;;;-3.00;79.21
13407;BME280;6774;48.208;10.766;2022-12-18T06:23:38;96710.03;;;-2.99;78.98
13407;BME280;6774;48.208;10.766;2022-12-18T06:26:07;96714.28;;;-2.98;79.06
13407;BME280;6774;48.208;10.766;2022-12-18T06:28:37;96715.03;;;-2.96;79.01
13407;BME280;6774;48.208;10.766;2022-12-18T06:31:06;96711.44;;;-2.94;79.40
13407;BME280;6774;48.208;10.766;2022-12-18T06:33:34;96712.34;;;-2.95;79.11
13407;BME280;6774;48.208;10.766;2022-12-18T06:36:05;96718.53;;;-2.97;79.42
13407;BME280;6774;48.208;10.766;2022-12-18T06:38:35;96716.84;;;-2.98;79.54
13407;BME280;6774;48.208;10.766;2022-12-18T06:41:06;96730.50;;;-2.96;79.22
13407;BME280;6774;48.208;10.766;2022-12-18T06:43:34;96729.13;;;-3.21;79.78
13407;BME280;6774;48.208;10.766;2022-12-18T06:46:04;96725.97;;;-3.08;79.85
13407;BME280;6774;48.208;10.766;2022-12-18T06:48:33;96716.38;;;-3.06;79.49
13407;BME280;6774;48.208;10.766;2022-12-18T06:51:01;96720.72;;;-3.07;79.65
13407;BME280;6774;48.208;10.766;2022-12-18T06:53:29;96726.78;;;-3.08;79.34
13407;BME280;6774;48.208;10.766;2022-12-18T06:56:02;96734.91;;;-3.16;79.55
13407;BME280;6774;48.208;10.766;2022-12-18T06:58:36;96746.63;;;-3.08;79.16
13407;BME280;6774;48.208;10.766;2022-12-18T07:01:07;96743.28;;;-3.10;78.94
13407;BME280;6774;48.208;10.766;2022-12-18T07:03:35;96751.06;;;-3.12;79.38
13407;BME280;6774;48.208;10.766;2022-12-18T07:06:05;96739.81;;;-3.11;79.12
13407;BME280;6774;48.208;10.766;2022-12-18T07:08:33;96739.31;;;-3.18;78.86
13407;BME280;6774;48.208;10.766;2022-12-18T07:11:03;96741.91;;;-3.18;79.61
13407;BME280;6774;48.208;10.766;2022-12-18T07:13:31;96741.75;;;-3.15;79.17
13407;BME280;6774;48.208;10.766;2022-12-18T07:16:09;96738.13;;;-3.10;79.42
13407;BME280;6774;48.208;10.766;2022-12-18T07:18:48;96744.31;;;-3.15;78.89
13407;BME280;6774;48.208;10.766;2022-12-18T07:21:18;96742.38;;;-3.09;79.46
13407;BME280;6774;48.208;10.766;2022-12-18T07:23:46;96737.97;;;-3.07;79.27
13407;BME280;6774;48.208;10.766;2022-12-18T07:26:16;96749.16;;;-3.26;78.70
13407;BME280;6774;48.208;10.766;2022-12-18T07:28:44;96754.16;;;-3.23;79.37
13407;BME280;6774;48.208;10.766;2022-12-18T07:31:15;96757.06;;;-3.11;78.95
13407;BME280;6774;48.208;10.766;2022-12-18T07:33:43;96758.53;;;-3.06;79.31
13407;BME280;6774;48.208;10.766;2022-12-18T07:36:12;96762.09;;;-3.08;79.31
13407;BME280;6774;48.208;10.766;2022-12-18T07:38:40;96762.63;;;-3.02;79.16
13407;BME280;6774;48.208;10.766;2022-12-18T07:41:10;96770.31;;;-3.00;78.52
13407;BME280;6774;48.208;10.766;2022-12-18T07:43:39;96766.81;;;-2.99;78.63
13407;BME280;6774;48.208;10.766;2022-12-18T07:46:09;96775.16;;;-2.94;78.20
13407;BME280;6774;48.208;10.766;2022-12-18T07:48:40;96772.22;;;-2.87;78.59
13407;BME280;6774;48.208;10.766;2022-12-18T07:51:11;96778.53;;;-2.92;77.96
13407;BME280;6774;48.208;10.766;2022-12-18T07:53:39;96779.13;;;-2.87;78.20
13407;BME280;6774;48.208;10.766;2022-12-18T07:56:10;96785.59;;;-2.78;77.94
13407;BME280;6774;48.208;10.766;2022-12-18T07:58:56;96792.88;;;-2.87;78.15
13407;BME280;6774;48.208;10.766;2022-12-18T08:01:24;96788.09;;;-2.77;78.29
13407;BME280;6774;48.208;10.766;2022-12-18T08:03:54;96783.47;;;-2.70;77.72
13407;BME280;6774;48.208;10.766;2022-12-18T08:06:22;96797.69;;;-2.62;77.50
13407;BME280;6774;48.208;10.766;2022-12-18T08:08:51;96800.81;;;-2.55;77.93
13407;BME280;6774;48.208;10.766;2022-12-18T08:11:20;96812.91;;;-2.55;77.26
13407;BME280;6774;48.208;10.766;2022-12-18T08:13:48;96804.84;;;-2.49;76.87
13407;BME280;6774;48.208;10.766;2022-12-18T08:16:17;96810.84;;;-2.49;77.00
13407;BME280;6774;48.208;10.766;2022-12-18T08:18:45;96812.91;;;-2.55;77.13
13407;BME280;6774;48.208;10.766;2022-12-18T08:21:17;96813.50;;;-2.50;77.12
13407;BME280;6774;48.208;10.766;2022-12-18T08:23:47;96804.00;;;-2.50;77.24
13407;BME280;6774;48.208;10.766;2022-12-18T08:26:17;96795.88;;;-2.42;76.96
13407;BME280;6774;48.208;10.766;2022-12-18T08:28:46;96798.00;;;-2.50;76.95
13407;BME280;6774;48.208;10.766;2022-12-18T08:31:16;96781.88;;;-2.38;76.93
13407;BME280;6774;48.208;10.766;2022-12-18T08:33:44;96788.28;;;-2.45;76.73
13407;BME280;6774;48.208;10.766;2022-12-18T08:36:12;96791.00;;;-2.48;76.14
13407;BME280;6774;48.208;10.766;2022-12-18T08:38:41;96797.78;;;-2.46;76.01
13407;BME280;6774;48.208;10.766;2022-12-18T08:41:11;96801.28;;;-2.47;76.11
13407;BME280;6774;48.208;10.766;2022-12-18T08:43:39;96801.78;;;-2.40;76.01
13407;BME280;6774;48.208;10.766;2022-12-18T08:46:27;96798.00;;;-2.33;75.79
13407;BME280;6774;48.208;10.766;2022-12-18T08:48:58;96789.31;;;-2.32;75.80
13407;BME280;6774;48.208;10.766;2022-12-18T08:51:26;96786.16;;;-2.37;75.80
13407;BME280;6774;48.208;10.766;2022-12-18T08:53:56;96783.47;;;-2.36;75.52
13407;BME280;6774;48.208;10.766;2022-12-18T08:56:24;96787.81;;;-2.36;75.81
13407;BME280;6774;48.208;10.766;2022-12-18T08:58:52;96793.91;;;-2.37;75.59
13407;BME280;6774;48.208;10.766;2022-12-18T09:01:21;96796.69;;;-2.24;75.27
13407;BME280;6774;48.208;10.766;2022-12-18T09:03:49;96786.88;;;-2.18;75.55
13407;BME280;6774;48.208;10.766;2022-12-18T09:06:18;96791.75;;;-2.29;75.31
13407;BME280;6774;48.208;10.766;2022-12-18T09:08:46;96800.56;;;-2.16;75.03
13407;BME280;6774;48.208;10.766;2022-12-18T09:11:19;96805.28;;;-2.07;75.07
13407;BME280;6774;48.208;10.766;2022-12-18T09:13:48;96807.13;;;-2.26;74.81
13407;BME280;6774;48.208;10.766;2022-12-18T09:16:17;96802.88;;;-2.27;75.30
13407;BME280;6774;48.208;10.766;2022-12-18T09:18:46;96795.41;;;-2.16;75.15
13407;BME280;6774;48.208;10.766;2022-12-18T09:21:15;96798.78;;;-1.98;75.09
13407;BME280;6774;48.208;10.766;2022-12-18T09:23:48;96804.00;;;-1.82;74.66
13407;BME280;6774;48.208;10.766;2022-12-18T09:26:17;96799.59;;;-1.80;73.98
13407;BME280;6774;48.208;10.766;2022-12-18T09:28:45;96798.34;;;-1.73;73.39
13407;BME280;6774;48.208;10.766;2022-12-18T09:31:13;96792.53;;;-1.61;73.88
13407;BME280;6774;48.208;10.766;2022-12-18T09:33:42;96792.19;;;-1.55;73.91
13407;BME280;6774;48.208;10.766;2022-12-18T09:36:11;96788.84;;;-1.57;73.20
13407;BME280;6774;48.208;10.766;2022-12-18T09:38:39;96793.38;;;-1.45;72.78
13407;BME280;6774;48.208;10.766;2022-12-18T09:41:19;96792.88;;;-1.35;72.59
13407;BME280;6774;48.208;10.766;2022-12-18T09:43:55;96788.44;;;-1.49;72.29
13407;BME280;6774;48.208;10.766;2022-12-18T09:46:28;96795.19;;;-1.47;72.38
13407;BME280;6774;48.208;10.766;2022-12-18T09:48:59;96797.53;;;-1.42;72.56
13407;BME280;6774;48.208;10.766;2022-12-18T09:51:33;96792.28;;;-1.40;72.46
13407;BME280;6774;48.208;10.766;2022-12-18T09:54:05;96794.38;;;-1.31;72.68
13407;BME280;6774;48.208;10.766;2022-12-18T09:56:40;96788.63;;;-1.36;72.35
13407;BME280;6774;48.208;10.766;2022-12-18T09:59:18;96786.53;;;-1.46;72.61
13407;BME280;6774;48.208;10.766;2022-12-18T10:01:48;96780.94;;;-1.54;72.82
13407;BME280;6774;48.208;10.766;2022-12-18T10:04:17;96777.91;;;-1.62;72.94
13407;BME280;6774;48.208;10.766;2022-12-18T10:06:51;96771.16;;;-1.49;73.01
13407;BME280;6774;48.208;10.766;2022-12-18T10:09:27;96765.66;;;-1.42;72.49
13407;BME280;6774;48.208;10.766;2022-12-18T10:12:04;96767.47;;;-1.29;72.87
13407;BME280;6774;48.208;10.766;2022-12-18T10:14:42;96772.06;;;-1.18;72.17
13407;BME280;6774;48.208;10.766;2022-12-18T10:17:18;96775.66;;;-1.21;72.04
13407;BME280;6774;48.208;10.766;2022-12-18T10:19:51;96770.97;;;-1.14;72.12
13407;BME280;6774;48.208;10.766;2022-12-18T10:22:34;96772.66;;;-1.13;72.15
13407;BME280;6774;48.208;10.766;2022-12-18T10:25:17;96768.66;;;-1.34;72.04
13407;BME280;6774;48.208;10.766;2022-12-18T10:27:51;96767.22;;;-1.72;72.64
13407;BME280;6774;48.208;10.766;2022-12-18T10:30:21;96767.31;;;-1.73;73.10
13407;BME280;6774;48.208;10.766;2022-12-18T10:32:50;96761.97;;;-1.54;73.61
13407;BME280;6774;48.208;10.766;2022-12-18T10:35:20;96772.50;;;-1.41;73.15
13407;BME280;6774;48.208;10.766;2022-12-18T10:38:00;96777.91;;;-1.30;72.34
13407;BME280;6774;48.208;10.766;2022-12-18T10:40:30;96773.31;;;-1.25;72.21
13407;BME280;6774;48.208;10.766;2022-12-18T10:43:10;96778.66;;;-1.28;71.57
13407;BME280;6774;48.208;10.766;2022-12-18T10:45:39;96784.69;;;-1.28;71.94
13407;BME280;6774;48.208;10.766;2022-12-18T10:48:18;96784.66;;;-1.12;72.19
13407;BME280;6774;48.208;10.766;2022-12-18T10:50:49;96778.00;;;-1.16;71.70
13407;BME280;6774;48.208;10.766;2022-12-18T10:53:41;96778.47;;;-0.94;71.27
13407;BME280;6774;48.208;10.766;2022-12-18T10:56:10;96765.41;;;-0.92;71.31
13407;BME280;6774;48.208;10.766;2022-12-18T10:58:40;96768.69;;;-0.89;70.81
13407;BME280;6774;48.208;10.766;2022-12-18T11:01:10;96777.63;;;-0.94;70.98
13407;BME280;6774;48.208;10.766;2022-12-18T11:03:40;96774.13;;;-0.93;71.01
13407;BME280;6774;48.208;10.766;2022-12-18T11:06:11;96774.94;;;-0.93;71.24
13407;BME280;6774;48.208;10.766;2022-12-18T11:08:41;96771.44;;;-0.92;70.38
13407;BME280;6774;48.208;10.766;2022-12-18T11:11:17;96769.44;;;-0.87;70.63
13407;BME280;6774;48.208;10.766;2022-12-18T11:13:56;96776.50;;;-0.74;70.84
13407;BME280;6774;48.208;10.766;2022-12-18T11:16:27;96778.41;;;-0.62;70.45
13407;BME280;6774;48.208;10.766;2022-12-18T11:19:12;96773.97;;;-0.60;69.75
13407;BME280;6774;48.208;10.766;2022-12-18T11:21:42;96771.03;;;-0.54;69.53
13407;BME280;6774;48.208;10.766;2022-12-18T11:24:19;96759.34;;;-0.47;69.83
13407;BME280;6774;48.208;10.766;2022-12-18T11:26:48;96763.94;;;-0.36;69.70
13407;BME280;6774;48.208;10.766;2022-12-18T11:29:31;96763.28;;;-0.40;68.58
13407;BME280;6774;48.208;10.766;2022-12-18T11:32:32;96763.72;;;-0.47;68.90
13407;BME280;6774;48.208;10.766;2022-12-18T11:35:10;96764.28;;;-0.42;69.01
13407;BME280;6774;48.208;10.766;2022-12-18T11:37:40;96766.44;;;-0.35;69.18
13407;BME280;6774;48.208;10.766;2022-12-18T11:40:14;96764.47;;;-0.45;68.63
13407;BME280;6774;48.208;10.766;2022-12-18T11:42:48;96760.81;;;-0.57;69.55
13407;BME280;6774;48.208;10.766;2022-12-18T11:45:25;96760.28;;;-0.48;69.30
13407;BME280;6774;48.208;10.766;2022-12-18T11:47:57;96753.03;;;-0.57;69.37
13407;BME280;6774;48.208;10.766;2022-12-18T11:50:31;96758.44;;;-0.46;70.14
13407;BME280;6774;48.208;10.766;2022-12-18T11:53:00;96759.94;;;-0.42;69.52
13407;BME280;6774;48.208;10.766;2022-12-18T11:55:39;96756.22;;;-0.38;69.83
13407;BME280;6774;48.208;10.766;2022-12-18T11:58:16;96746.97;;;-0.28;69.42
13407;BME280;6774;48.208;10.766;2022-12-18T12:01:23;96744.22;;;-0.10;69.05
13407;BME280;6774;48.208;10.766;2022-12-18T12:04:09;96747.09;;;-0.01;68.61
13407;BME280;6774;48.208;10.766;2022-12-18T12:06:46;96743.88;;;-0.04;69.19
13407;BME280;6774;48.208;10.766;2022-12-18T12:09:22;96733.47;;;-0.04;68.40
13407;BME280;6774;48.208;10.766;2022-12-18T12:11:59;96726.81;;;-0.08;68.04
13407;BME280;6774;48.208;10.766;2022-12-18T12:14:38;96730.25;;;-0.08;68.28
13407;BME280;6774;48.208;10.766;2022-12-18T12:17:19;96734.31;;;-0.04;68.54
13407;BME280;6774;48.208;10.766;2022-12-18T12:19:53;96730.44;;;0.04;68.46
13407;BME280;6774;48.208;10.766;2022-12-18T12:22:28;96742.00;;;-0.02;68.42
13407;BME280;6774;48.208;10.766;2022-12-18T12:25:11;96740.34;;;-0.03;68.09
13407;BME280;6774;48.208;10.766;2022-12-18T12:27:47;96744.22;;;-0.10;68.51
13407;BME280;6774;48.208;10.766;2022-12-18T12:30:20;96744.78;;;-0.19;68.83
13407;BME280;6774;48.208;10.766;2022-12-18T12:33:08;96745.16;;;-0.25;68.31
13407;BME280;6774;48.208;10.766;2022-12-18T12:35:47;96750.16;;;-0.22;68.42
13407;BME280;6774;48.208;10.766;2022-12-18T12:38:22;96739.78;;;-0.22;69.01
13407;BME280;6774;48.208;10.766;2022-12-18T12:40:54;96730.44;;;-0.25;69.25
13407;BME280;6774;48.208;10.766;2022-12-18T12:43:36;96727.25;;;-0.30;68.86
13407;BME280;6774;48.208;10.766;2022-12-18T12:46:15;96724.03;;;-0.34;68.95
13407;BME280;6774;48.208;10.766;2022-12-18T12:48:47;96713.25;;;-0.42;69.51
13407;BME280;6774;48.208;10.766;2022-12-18T12:51:19;96708.09;;;-0.42;69.58
13407;BME280;6774;48.208;10.766;2022-12-18T12:53:48;96721.16;;;-0.43;69.67
13407;BME280;6774;48.208;10.766;2022-12-18T12:56:18;96708.09;;;-0.42;69.83
13407;BME280;6774;48.208;10.766;2022-12-18T12:58:55;96705.38;;;-0.40;69.56
13407;BME280;6774;48.208;10.766;2022-12-18T13:01:33;96707.50;;;-0.47;69.70
13407;BME280;6774;48.208;10.766;2022-12-18T13:04:15;96700.84;;;-0.51;70.00
13407;BME280;6774;48.208;10.766;2022-12-18T13:06:53;96704.81;;;-0.60;69.97
13407;BME280;6774;48.208;10.766;2022-12-18T13:09:25;96699.88;;;-0.64;69.94
13407;BME280;6774;48.208;10.766;2022-12-18T13:12:04;96700.81;;;-0.65;70.22
13407;BME280;6774;48.208;10.766;2022-12-18T13:14:49;96701.94;;;-0.69;70.57
13407;BME280;6774;48.208;10.766;2022-12-18T13:17:28;96705.34;;;-0.69;70.78
13407;BME280;6774;48.208;10.766;2022-12-18T13:20:09;96708.19;;;-0.73;70.89
13407;BME280;6774;48.208;10.766;2022-12-18T13:22:41;96707.53;;;-0.77;70.98
13407;BME280;6774;48.208;10.766;2022-12-18T13:25:31;96710.56;;;-0.84;71.12
13407;BME280;6774;48.208;10.766;2022-12-18T13:28:06;96712.38;;;-1.01;70.79
13407;BME280;6774;48.208;10.766;2022-12-18T13:30:49;96710.16;;;-1.07;71.42
13407;BME280;6774;48.208;10.766;2022-12-18T13:33:41;96715.00;;;-1.17;72.09